• Join FlightAware (Why Join?)
  • Login
  • US Flag 
02:20AM EDT


 

Airport Tracker/Info


-or-


 

Live Flight TrackerFlight Track Log ✈ USC105 ✈ 01-May-2013 ✈ KYIP - KLCK

Flight Track Log - Related Links

Times and Time Zones

All times are in EDT time to prevent confusion due to time zone crossing. See the USC105 flight status page for this flight to view local times or setup timezone preferences in your user account.

Time Position Orientation Groundspeed Altitude Reporting Facility
EDT Latitude Longitude Course Direction KTS MPH feet Rate Location/Type
06:40AM 42.2022 -83.5853 231° Southwest 110 127 2,600  Level Cleveland Center
06:41AM 42.1706 -83.5922 189° South 118 136 3,700 1,080 Climbing Cleveland Center
06:42AM 42.1372 -83.5933 181° South 119 137 4,800 1,140 Climbing Cleveland Center
06:43AM 42.1042 -83.5864 171° South 121 139 6,000 1,020 Climbing Cleveland Center
06:44AM 42.0731 -83.5792 170° South 123 142 6,900 60 Climbing Cleveland Center
06:46AM 42.0183 -83.5628 166° South  Level Estimated
06:53AM 41.7115 -83.4718 170° South  Level Estimated
06:54AM 41.6683 -83.4558 165° South  Level FlightAware Approximate
06:55AM 41.6250 -83.4397 165° South  Level FlightAware Approximate
06:55AM 41.5836 -83.4317 165° South 177 204 7,000  Level Indianapolis Center
06:56AM 41.5817 -83.4237 165° South  Level FlightAware Approximate
06:56AM 41.5353 -83.4164 167° South 177 204 7,000  Level Indianapolis Center
06:57AM 41.5385 -83.4077 165° South  Level FlightAware Approximate
06:57AM 41.4883 -83.4028 168° South 175 201 7,000  Level Indianapolis Center
06:58AM 41.4952 -83.3918 165° South  Level FlightAware Approximate
06:58AM 41.4397 -83.3883 167° South 176 203 7,000  Level Indianapolis Center
06:59AM 41.4520 -83.3758 165° South  Level FlightAware Approximate
06:59AM 41.3919 -83.3764 169° South 174 200 7,000  Level Indianapolis Center
07:00AM 41.4087 -83.3599 165° South  Level FlightAware Approximate
07:00AM 41.3439 -83.3622 168° South 175 201 7,000  Level Indianapolis Center
07:01AM 41.2953 -83.3467 166° South 176 203 7,000  Level Indianapolis Center
07:02AM 41.2475 -83.3333 168° South 176 203 7,000 -60 Level Indianapolis Center
07:03AM 41.1992 -83.3197 168° South 176 203 6,900 -60 Descending Indianapolis Center
07:04AM 41.1419 -83.3039 168° South 177 204 6,900  Level Indianapolis Center
07:05AM 41.0936 -83.2897 168° South 177 204 6,900  Level Indianapolis Center
07:06AM 41.0450 -83.2742 166° South 178 205 6,900  Level Indianapolis Center
07:07AM 40.9967 -83.2619 169° South 176 203 6,900  Level Indianapolis Center
07:08AM 40.9472 -83.2481 168° South 178 205 6,900  Level Indianapolis Center
07:09AM 40.8989 -83.2339 168° South 178 205 6,900  Level Indianapolis Center
07:10AM 40.8506 -83.2189 167° South 177 204 6,900  Level Indianapolis Center
07:11AM 40.8019 -83.2061 169° South 176 203 6,900  Level Indianapolis Center
07:12AM 40.7508 -83.1911 167° South 177 204 6,900  Level Indianapolis Center
07:13AM 40.7017 -83.1761 167° South 180 207 6,900  Level Indianapolis Center
07:14AM 40.6533 -83.1631 168° South 177 204 6,900  Level Indianapolis Center
07:15AM 40.6072 -83.1508 169° South 177 204 6,900  Level Indianapolis Center
07:16AM 40.5586 -83.1367 168° South 178 205 6,900  Level Indianapolis Center
07:17AM 40.5058 -83.1228 169° South 178 205 6,900  Level Indianapolis Center
07:18AM 40.4567 -83.1083 167° South 180 207 6,900  Level Indianapolis Center
07:19AM 40.4125 -83.0994 171° South 181 208 6,900  Level Indianapolis Center
07:20AM 40.3614 -83.0825 166° South 180 207 6,900  Level Indianapolis Center
07:21AM 40.3058 -83.0681 169° South 180 207 6,900  Level Indianapolis Center
07:22AM 40.2581 -83.0536 167° South 178 205 6,900 -60 Level Indianapolis Center
07:23AM 40.2086 -83.0392 167° South 179 206 6,800 -660 Descending Indianapolis Center
07:24AM 40.1478 -83.0222 168° South 207 238 5,600 -1,140 Descending Indianapolis Center
07:25AM 40.0903 -83.0047 167° South 207 238 4,600 -840 Descending Indianapolis Center
07:26AM 40.0369 -82.9903 168° South 200 230 4,000 -600 Descending Indianapolis Center
07:27AM 39.9833 -82.9786 171° South 185 213 3,500 -720 Descending Indianapolis Center
07:28AM 39.9339 -82.9650 168° South 188 216 2,600 -780 Descending Indianapolis Center
07:29AM 39.8900 -82.9328 151° Southeast 170 196 2,000 -540 Descending Indianapolis Center
07:30AM 39.8519 -82.9047 150° Southeast 160 184 1,500 -600 Descending Indianapolis Center
07:31AM 39.8289 -82.9094 189° South 116 133 900 -720 Descending Indianapolis Center